MOL Modern — V7VS6 — position and weather

sailwx.info

Track history (hours):
 
Tides and Currents Weather Stations Pressure Air Temp Water Temp Dewpoint Dewpoint Depression Visibility Wind Speed Wind Dir Waves Ship Positions

MOL Modern

Last reported at 2016-Oct-01 21:33 UTC. Time now 2016-Oct-01 22:25 UTC.
Position N 36°56' W 076°20'.

Length 302 m; draft 9.4 m.

Type: Ship (hazmat cat A). MMSI: 538004203.

Date/timePositionNaut miles runAvg speedWind from/ knotsBaromVisibWave heightAir tempDewpointWater temp
2016-Oct-01 21:33N 36°56' W 076°20'  
2016-Sep-28 19:33N 32°08' W 079°47'6120.5
2016-Sep-28 16:33N 31°13' W 080°18'2423.9
2016-Sep-28 15:33N 30°53' W 080°32'81 2.1
2016-Sep-27 00:31N 32°07' W 081°08'0 0.0
2016-Sep-26 20:31N 32°07' W 081°08'0 0.0
2016-Sep-26 19:31N 32°07' W 081°08'0 0.0
2016-Sep-26 15:28N 32°07' W 081°08'0 0.0
2016-Sep-26 13:31N 32°07' W 081°08'0 0.0
2016-Sep-26 11:33N 32°07' W 081°08'19 6.3
2016-Sep-26 08:33N 32°00' W 080°48'39 6.5
2016-Sep-26 02:33N 31°36' W 080°11'1711.5
2016-Sep-26 01:05N 31°20' W 080°06'26214.9
2016-Sep-25 07:34N 26°59' W 079°52'5518.3
2016-Sep-25 04:33N 26°04' W 079°55'22 3.4
2016-Sep-24 22:07N 25°46' W 080°09'0 0.0
2016-Sep-24 17:16N 25°46' W 080°09'0 0.0
2016-Sep-24 14:25N 25°46' W 080°09'0 0.0
2016-Sep-24 12:25N 25°46' W 080°09'0 0.0
2016-Sep-24 10:26N 25°46' W 080°09'2 2.8
2016-Sep-24 09:33N 25°46' W 080°06'  
Track history (hours):
 
Tides and Currents Weather Stations Pressure Air Temp Water Temp Dewpoint Dewpoint Depression Visibility Wind Speed Wind Dir Waves Ship Positions

MOL Modern

Last reported at 2016-Oct-01 21:33 UTC. Time now 2016-Oct-01 22:25 UTC.
Position N 36°56' W 076°20'.

Length 302 m; draft 9.4 m.

Type: Ship (hazmat cat A). MMSI: 538004203.

Date/timePositionNaut miles runAvg speedWind from/ knotsBaromVisibWave heightAir tempDewpointWater temp
2016-Oct-01 21:33N 36°56' W 076°20'  
2016-Sep-28 19:33N 32°08' W 079°47'6120.5
2016-Sep-28 16:33N 31°13' W 080°18'2423.9
2016-Sep-28 15:33N 30°53' W 080°32'81 2.1
2016-Sep-27 00:31N 32°07' W 081°08'0 0.0
2016-Sep-26 20:31N 32°07' W 081°08'0 0.0
2016-Sep-26 19:31N 32°07' W 081°08'0 0.0
2016-Sep-26 15:28N 32°07' W 081°08'0 0.0
2016-Sep-26 13:31N 32°07' W 081°08'0 0.0
2016-Sep-26 11:33N 32°07' W 081°08'19 6.3
2016-Sep-26 08:33N 32°00' W 080°48'39 6.5
2016-Sep-26 02:33N 31°36' W 080°11'1711.5
2016-Sep-26 01:05N 31°20' W 080°06'26214.9
2016-Sep-25 07:34N 26°59' W 079°52'5518.3
2016-Sep-25 04:33N 26°04' W 079°55'22 3.4
2016-Sep-24 22:07N 25°46' W 080°09'0 0.0
2016-Sep-24 17:16N 25°46' W 080°09'0 0.0
2016-Sep-24 14:25N 25°46' W 080°09'0 0.0
2016-Sep-24 12:25N 25°46' W 080°09'0 0.0
2016-Sep-24 10:26N 25°46' W 080°09'2 2.8
2016-Sep-24 09:33N 25°46' W 080°06'  

Dump ship's entire track history